createdAt,value
2022-10-10T00:01:56.166Z,8.87
2022-10-10T00:08:16.287Z,8.92
2022-10-10T00:14:39.178Z,8.97
2022-10-10T00:20:59.192Z,9.01
2022-10-10T00:27:22.199Z,9.02
2022-10-10T00:33:42.175Z,9.03
2022-10-10T00:40:05.273Z,9.03
2022-10-10T00:46:25.154Z,9.02
2022-10-10T00:52:48.492Z,9
2022-10-10T00:59:08.177Z,8.96
2022-10-10T01:05:31.208Z,8.93
2022-10-10T01:11:51.247Z,8.92
2022-10-10T01:18:14.227Z,8.9
2022-10-10T01:24:34.176Z,8.87
2022-10-10T01:30:57.221Z,8.87
2022-10-10T01:37:17.148Z,8.87
2022-10-10T01:43:40.185Z,8.85
2022-10-10T01:50:00.230Z,8.8
2022-10-10T01:56:23.169Z,8.77
2022-10-10T02:02:43.232Z,8.76
2022-10-10T02:09:06.286Z,8.73
2022-10-10T02:15:26.298Z,8.65
2022-10-10T02:21:49.173Z,8.61
2022-10-10T02:28:09.261Z,8.57
2022-10-10T02:34:32.183Z,8.51
2022-10-10T02:40:52.167Z,8.48
2022-10-10T02:47:15.201Z,8.47
2022-10-10T02:53:35.239Z,8.47
2022-10-10T02:59:58.228Z,8.45
2022-10-10T03:06:18.190Z,8.46
2022-10-10T03:12:41.196Z,8.46
2022-10-10T03:29:52.609Z,8.39
2022-10-10T03:36:15.165Z,8.37
2022-10-10T03:42:35.195Z,8.32
2022-10-10T03:48:58.227Z,8.24
2022-10-10T03:55:18.216Z,8.23
2022-10-10T04:01:41.307Z,8.21
2022-10-10T04:08:01.240Z,8.19
2022-10-10T04:14:24.187Z,8.11
2022-10-10T04:20:44.205Z,8.05
2022-10-10T04:27:07.194Z,8
2022-10-10T04:33:27.204Z,7.94
2022-10-10T04:39:50.226Z,7.92
2022-10-10T04:46:10.269Z,7.89
2022-10-10T04:52:33.143Z,7.89
2022-10-10T04:58:53.136Z,7.84
2022-10-10T05:05:16.254Z,7.79
2022-10-10T05:11:36.163Z,7.75
2022-10-10T05:17:59.225Z,7.74
2022-10-10T05:24:19.166Z,7.76
2022-10-10T05:30:42.190Z,7.78
2022-10-10T05:37:02.235Z,7.82
2022-10-10T05:43:25.270Z,7.85
2022-10-10T05:49:45.206Z,7.89
2022-10-10T05:56:08.184Z,7.95
2022-10-10T06:02:28.307Z,8
2022-10-10T06:08:51.208Z,8.07
2022-10-10T06:15:11.207Z,8.16
2022-10-10T06:21:34.570Z,8.26
2022-10-10T06:27:54.224Z,8.37
2022-10-10T06:34:17.221Z,8.45
2022-10-10T06:40:37.234Z,8.52
2022-10-10T06:47:00.199Z,8.62
2022-10-10T06:53:20.231Z,8.73
2022-10-10T06:59:43.243Z,8.87
2022-10-10T07:06:03.297Z,9.01
2022-10-10T07:12:29.063Z,9.19
2022-10-10T07:18:46.254Z,9.39
2022-10-10T07:25:09.168Z,9.62
2022-10-10T07:31:29.209Z,9.88
2022-10-10T07:37:52.186Z,10.16
2022-10-10T07:44:12.161Z,10.44
2022-10-10T07:50:35.210Z,10.71
2022-10-10T07:56:55.187Z,10.98
2022-10-10T08:03:18.178Z,11.26
2022-10-10T08:09:38.172Z,11.54
2022-10-10T08:16:01.217Z,11.86
2022-10-10T08:39:43.649Z,12.9
2022-10-10T08:46:03.158Z,13.19
2022-10-10T08:52:26.186Z,13.44
2022-10-10T08:58:46.212Z,13.64
2022-10-10T09:05:09.385Z,13.83
2022-10-10T09:11:29.226Z,14.05
2022-10-10T09:17:52.265Z,14.28
2022-10-10T09:24:12.219Z,14.55
2022-10-10T09:30:35.166Z,14.87
2022-10-10T09:36:59.221Z,15.21
2022-10-10T09:43:18.202Z,15.63
2022-10-10T09:49:38.174Z,16.14
2022-10-10T09:56:01.212Z,16.56
2022-10-10T10:02:21.158Z,16.93
2022-10-10T10:08:46.791Z,17.24
2022-10-10T10:15:04.235Z,17.46
2022-10-10T10:21:27.379Z,17.73
2022-10-10T10:27:47.162Z,17.9
2022-10-10T10:34:10.482Z,18.27
2022-10-10T10:40:30.173Z,18.6
2022-10-10T10:46:53.151Z,19.1
2022-10-10T10:53:13.200Z,19.14
2022-10-10T11:00:16.742Z,19.36
2022-10-10T11:05:56.289Z,19.61
2022-10-10T11:12:19.301Z,19.83
2022-10-10T11:18:39.150Z,19.98
2022-10-10T11:25:02.186Z,20.01
2022-10-10T11:31:22.183Z,19.95
2022-10-10T11:37:45.160Z,19.71
2022-10-10T11:44:05.209Z,19.69
2022-10-10T11:50:28.286Z,19.88
2022-10-10T11:56:48.219Z,20.06
2022-10-10T12:03:11.143Z,20.47
2022-10-10T12:09:31.222Z,20.82
2022-10-10T12:15:54.145Z,20.77
2022-10-10T12:22:18.145Z,20.59
2022-10-10T12:28:37.257Z,20.48
2022-10-10T12:34:57.282Z,20.53
2022-10-10T12:41:20.172Z,20.78
2022-10-10T12:48:00.195Z,20.78
2022-10-10T12:54:03.232Z,20.78
2022-10-10T13:00:23.172Z,20.78
2022-10-10T13:06:46.195Z,20.75
2022-10-10T13:13:06.169Z,20.61
2022-10-10T13:19:29.146Z,20.47
2022-10-10T13:25:49.329Z,20.45
2022-10-10T13:32:12.159Z,20.52
2022-10-10T13:38:32.174Z,20.69
2022-10-10T14:01:38.269Z,20.7
2022-10-10T14:08:01.147Z,20.62
2022-10-10T14:14:21.177Z,20.48
2022-10-10T14:20:44.187Z,20.31
2022-10-10T14:27:04.167Z,20.11
2022-10-10T14:33:27.157Z,19.97
2022-10-10T14:39:47.198Z,20.01
2022-10-10T14:46:10.194Z,20.07
2022-10-10T14:52:30.183Z,20.02
2022-10-10T14:58:53.249Z,19.94
2022-10-10T15:05:13.153Z,19.83
2022-10-10T15:11:36.202Z,19.72
2022-10-10T15:17:56.181Z,19.61
2022-10-10T15:24:19.160Z,19.48
2022-10-10T15:30:42.836Z,19.38
2022-10-10T15:37:02.188Z,19.14
2022-10-10T15:43:22.176Z,18.94
2022-10-10T15:49:45.164Z,18.75
2022-10-10T15:56:09.144Z,18.56
2022-10-10T16:02:28.186Z,18.36
2022-10-10T16:08:52.693Z,18.07
2022-10-10T16:15:11.261Z,18.1
2022-10-10T16:21:32.402Z,18.16
2022-10-10T16:27:55.196Z,18.13
2022-10-10T16:34:15.172Z,18.06
2022-10-10T16:40:38.156Z,17.99
2022-10-10T16:46:58.205Z,17.92
2022-10-10T16:53:21.167Z,17.83
2022-10-10T16:59:41.255Z,17.7
2022-10-10T17:06:04.182Z,17.53
2022-10-10T17:12:24.252Z,17.36
2022-10-10T17:18:47.176Z,17.2
2022-10-10T17:25:07.148Z,17.1
2022-10-10T17:31:30.192Z,17.05
2022-10-10T17:37:50.177Z,17.02
2022-10-10T17:44:13.226Z,16.97
2022-10-10T17:50:33.178Z,16.91
2022-10-10T17:56:56.226Z,16.86
2022-10-10T18:03:16.186Z,16.8
2022-10-10T18:09:39.210Z,16.72
2022-10-10T18:16:06.744Z,16.61
2022-10-10T18:22:22.172Z,16.52
2022-10-10T18:28:42.274Z,16.44
2022-10-10T18:35:05.174Z,16.37
2022-10-10T18:41:25.194Z,16.3
2022-10-10T18:47:48.535Z,16.21
2022-10-10T19:11:11.709Z,15.9
2022-10-10T19:17:31.161Z,15.78
2022-10-10T19:23:54.186Z,15.7
2022-10-10T19:30:14.184Z,15.62
2022-10-10T19:36:38.540Z,15.56
2022-10-10T19:42:57.181Z,15.5
2022-10-10T19:49:20.185Z,15.37
2022-10-10T19:55:40.191Z,15.3
2022-10-10T20:02:03.252Z,15.18
2022-10-10T20:08:23.288Z,15.05
2022-10-10T20:14:46.314Z,14.98
2022-10-10T20:21:06.224Z,14.88
2022-10-10T20:27:31.339Z,14.78
2022-10-10T20:33:49.179Z,14.66
2022-10-10T20:40:12.205Z,14.53
2022-10-10T20:46:32.219Z,14.42
2022-10-10T20:52:55.184Z,14.29
2022-10-10T20:59:15.191Z,14.15
2022-10-10T21:05:38.224Z,14.03
2022-10-10T21:11:58.200Z,13.97
2022-10-10T21:18:21.192Z,13.9
2022-10-10T21:24:41.198Z,13.86
2022-10-10T21:31:04.235Z,13.85
2022-10-10T21:37:24.161Z,13.88
2022-10-10T21:43:47.178Z,13.89
2022-10-10T21:50:07.200Z,13.82
2022-10-10T21:56:30.160Z,13.75
2022-10-10T22:20:44.168Z,13.19
2022-10-10T22:27:04.181Z,13.03
2022-10-10T22:33:27.164Z,12.89
2022-10-10T22:39:47.229Z,12.75
2022-10-10T22:46:10.303Z,12.55
2022-10-10T22:52:30.202Z,12.41
2022-10-10T22:58:53.228Z,12.18
2022-10-10T23:05:13.248Z,11.98
2022-10-10T23:11:36.219Z,11.9
2022-10-10T23:17:56.265Z,11.74
2022-10-10T23:24:19.160Z,11.39
2022-10-10T23:30:39.247Z,11.1
2022-10-10T23:37:02.233Z,10.92
2022-10-10T23:43:22.214Z,10.79
2022-10-10T23:49:45.218Z,10.64
2022-10-10T23:56:05.534Z,10.5
